sensor_id;sensor_type;location;lat;lon;timestamp;P1;durP1;ratioP1;P2;durP2;ratioP2
13580;SDS011;6861;46.170;7.222;2023-05-09T00:00:22;1.50;;;0.70;;
13580;SDS011;6861;46.170;7.222;2023-05-09T00:02:52;0.50;;;0.50;;
13580;SDS011;6861;46.170;7.222;2023-05-09T00:05:20;1.48;;;0.45;;
13580;SDS011;6861;46.170;7.222;2023-05-09T00:07:49;0.80;;;0.60;;
13580;SDS011;6861;46.170;7.222;2023-05-09T00:10:17;2.05;;;0.52;;
13580;SDS011;6861;46.170;7.222;2023-05-09T00:12:46;0.60;;;0.55;;
13580;SDS011;6861;46.170;7.222;2023-05-09T00:15:15;1.70;;;0.70;;
13580;SDS011;6861;46.170;7.222;2023-05-09T00:17:44;0.63;;;0.60;;
13580;SDS011;6861;46.170;7.222;2023-05-09T00:20:14;2.35;;;0.70;;
13580;SDS011;6861;46.170;7.222;2023-05-09T00:22:43;1.90;;;0.60;;
13580;SDS011;6861;46.170;7.222;2023-05-09T00:25:12;0.95;;;0.60;;
13580;SDS011;6861;46.170;7.222;2023-05-09T00:27:41;0.88;;;0.40;;
13580;SDS011;6861;46.170;7.222;2023-05-09T00:30:10;2.83;;;0.57;;
13580;SDS011;6861;46.170;7.222;2023-05-09T00:32:39;0.95;;;0.50;;
13580;SDS011;6861;46.170;7.222;2023-05-09T00:35:07;0.50;;;0.40;;
13580;SDS011;6861;46.170;7.222;2023-05-09T00:37:38;1.13;;;0.50;;
13580;SDS011;6861;46.170;7.222;2023-05-09T00:40:06;1.55;;;0.40;;
13580;SDS011;6861;46.170;7.222;2023-05-09T00:42:35;1.02;;;0.60;;
13580;SDS011;6861;46.170;7.222;2023-05-09T00:45:04;2.25;;;0.60;;
13580;SDS011;6861;46.170;7.222;2023-05-09T00:47:33;0.52;;;0.47;;
13580;SDS011;6861;46.170;7.222;2023-05-09T00:50:02;1.75;;;0.65;;
13580;SDS011;6861;46.170;7.222;2023-05-09T00:52:31;1.30;;;0.77;;
13580;SDS011;6861;46.170;7.222;2023-05-09T00:55:01;0.90;;;0.70;;
13580;SDS011;6861;46.170;7.222;2023-05-09T00:57:30;1.85;;;0.50;;
13580;SDS011;6861;46.170;7.222;2023-05-09T00:59:59;0.90;;;0.55;;
13580;SDS011;6861;46.170;7.222;2023-05-09T01:02:27;2.08;;;0.55;;
13580;SDS011;6861;46.170;7.222;2023-05-09T01:04:55;0.80;;;0.50;;
13580;SDS011;6861;46.170;7.222;2023-05-09T01:07:24;0.63;;;0.50;;
13580;SDS011;6861;46.170;7.222;2023-05-09T01:10:04;0.88;;;0.60;;
13580;SDS011;6861;46.170;7.222;2023-05-09T01:12:39;0.90;;;0.60;;
13580;SDS011;6861;46.170;7.222;2023-05-09T01:15:16;2.60;;;0.70;;
13580;SDS011;6861;46.170;7.222;2023-05-09T01:17:52;0.77;;;0.60;;
13580;SDS011;6861;46.170;7.222;2023-05-09T01:20:27;1.88;;;0.68;;
13580;SDS011;6861;46.170;7.222;2023-05-09T01:23:02;1.42;;;0.70;;
13580;SDS011;6861;46.170;7.222;2023-05-09T01:25:47;1.60;;;0.70;;
13580;SDS011;6861;46.170;7.222;2023-05-09T01:28:30;2.47;;;0.93;;
13580;SDS011;6861;46.170;7.222;2023-05-09T01:31:04;1.30;;;0.52;;
13580;SDS011;6861;46.170;7.222;2023-05-09T01:33:35;1.33;;;0.52;;
13580;SDS011;6861;46.170;7.222;2023-05-09T01:36:08;0.75;;;0.63;;
13580;SDS011;6861;46.170;7.222;2023-05-09T01:38:41;0.82;;;0.63;;
13580;SDS011;6861;46.170;7.222;2023-05-09T01:41:11;0.93;;;0.73;;
13580;SDS011;6861;46.170;7.222;2023-05-09T01:43:44;1.02;;;0.73;;
13580;SDS011;6861;46.170;7.222;2023-05-09T01:46:15;1.60;;;0.70;;
13580;SDS011;6861;46.170;7.222;2023-05-09T01:48:44;1.65;;;0.60;;
13580;SDS011;6861;46.170;7.222;2023-05-09T01:51:13;3.08;;;0.90;;
13580;SDS011;6861;46.170;7.222;2023-05-09T01:53:42;1.15;;;0.70;;
13580;SDS011;6861;46.170;7.222;2023-05-09T01:56:12;2.53;;;0.70;;
13580;SDS011;6861;46.170;7.222;2023-05-09T01:58:42;0.90;;;0.57;;
13580;SDS011;6861;46.170;7.222;2023-05-09T02:01:15;1.30;;;0.73;;
13580;SDS011;6861;46.170;7.222;2023-05-09T02:03:44;2.47;;;0.77;;
13580;SDS011;6861;46.170;7.222;2023-05-09T02:06:16;1.17;;;0.70;;
13580;SDS011;6861;46.170;7.222;2023-05-09T02:08:46;0.93;;;0.60;;
13580;SDS011;6861;46.170;7.222;2023-05-09T02:11:15;1.17;;;0.70;;
13580;SDS011;6861;46.170;7.222;2023-05-09T02:13:43;2.72;;;0.80;;
13580;SDS011;6861;46.170;7.222;2023-05-09T02:16:11;1.85;;;0.77;;
13580;SDS011;6861;46.170;7.222;2023-05-09T02:18:42;1.20;;;0.70;;
13580;SDS011;6861;46.170;7.222;2023-05-09T02:21:10;2.47;;;0.75;;
13580;SDS011;6861;46.170;7.222;2023-05-09T02:23:38;2.35;;;0.80;;
13580;SDS011;6861;46.170;7.222;2023-05-09T02:26:06;1.95;;;0.73;;
13580;SDS011;6861;46.170;7.222;2023-05-09T02:28:35;1.75;;;0.80;;
13580;SDS011;6861;46.170;7.222;2023-05-09T02:31:05;1.30;;;0.70;;
13580;SDS011;6861;46.170;7.222;2023-05-09T02:33:35;2.22;;;1.00;;
13580;SDS011;6861;46.170;7.222;2023-05-09T02:36:07;1.17;;;0.60;;
13580;SDS011;6861;46.170;7.222;2023-05-09T02:38:36;1.23;;;0.73;;
13580;SDS011;6861;46.170;7.222;2023-05-09T02:41:04;1.17;;;0.80;;
13580;SDS011;6861;46.170;7.222;2023-05-09T02:43:32;1.17;;;0.70;;
13580;SDS011;6861;46.170;7.222;2023-05-09T02:46:00;1.45;;;0.65;;
13580;SDS011;6861;46.170;7.222;2023-05-09T02:48:29;1.48;;;0.60;;
13580;SDS011;6861;46.170;7.222;2023-05-09T02:50:57;1.02;;;0.70;;
13580;SDS011;6861;46.170;7.222;2023-05-09T02:53:26;1.33;;;0.60;;
13580;SDS011;6861;46.170;7.222;2023-05-09T02:55:54;4.18;;;0.80;;
13580;SDS011;6861;46.170;7.222;2023-05-09T02:58:22;2.55;;;0.70;;
13580;SDS011;6861;46.170;7.222;2023-05-09T03:00:50;2.20;;;0.70;;
13580;SDS011;6861;46.170;7.222;2023-05-09T03:03:19;1.10;;;0.75;;
13580;SDS011;6861;46.170;7.222;2023-05-09T03:05:47;2.85;;;0.90;;
13580;SDS011;6861;46.170;7.222;2023-05-09T03:08:15;1.95;;;0.60;;
13580;SDS011;6861;46.170;7.222;2023-05-09T03:10:45;3.22;;;0.77;;
13580;SDS011;6861;46.170;7.222;2023-05-09T03:13:13;5.15;;;0.98;;
13580;SDS011;6861;46.170;7.222;2023-05-09T03:15:41;3.38;;;0.85;;
13580;SDS011;6861;46.170;7.222;2023-05-09T03:18:09;2.88;;;0.90;;
13580;SDS011;6861;46.170;7.222;2023-05-09T03:20:37;1.70;;;0.88;;
13580;SDS011;6861;46.170;7.222;2023-05-09T03:23:05;2.10;;;1.00;;
13580;SDS011;6861;46.170;7.222;2023-05-09T03:25:33;1.10;;;0.85;;
13580;SDS011;6861;46.170;7.222;2023-05-09T03:28:03;1.15;;;0.70;;
13580;SDS011;6861;46.170;7.222;2023-05-09T03:30:31;1.70;;;0.70;;
13580;SDS011;6861;46.170;7.222;2023-05-09T03:32:59;0.93;;;0.70;;
13580;SDS011;6861;46.170;7.222;2023-05-09T03:35:28;1.40;;;0.73;;
13580;SDS011;6861;46.170;7.222;2023-05-09T03:37:56;0.82;;;0.70;;
13580;SDS011;6861;46.170;7.222;2023-05-09T03:40:24;2.90;;;0.70;;
13580;SDS011;6861;46.170;7.222;2023-05-09T03:42:52;0.55;;;0.55;;
13580;SDS011;6861;46.170;7.222;2023-05-09T03:45:22;1.15;;;0.98;;
13580;SDS011;6861;46.170;7.222;2023-05-09T03:47:50;1.77;;;0.93;;
13580;SDS011;6861;46.170;7.222;2023-05-09T03:50:19;2.15;;;0.70;;
13580;SDS011;6861;46.170;7.222;2023-05-09T03:52:47;1.70;;;0.70;;
13580;SDS011;6861;46.170;7.222;2023-05-09T03:55:15;2.38;;;0.60;;
13580;SDS011;6861;46.170;7.222;2023-05-09T03:57:43;0.90;;;0.80;;
13580;SDS011;6861;46.170;7.222;2023-05-09T04:00:12;0.60;;;0.60;;
13580;SDS011;6861;46.170;7.222;2023-05-09T04:02:42;4.13;;;0.90;;
13580;SDS011;6861;46.170;7.222;2023-05-09T04:05:10;2.20;;;0.70;;
13580;SDS011;6861;46.170;7.222;2023-05-09T04:07:38;2.70;;;0.80;;
13580;SDS011;6861;46.170;7.222;2023-05-09T04:10:07;2.30;;;0.93;;
13580;SDS011;6861;46.170;7.222;2023-05-09T04:12:36;0.98;;;0.80;;
13580;SDS011;6861;46.170;7.222;2023-05-09T04:15:05;2.60;;;0.75;;
13580;SDS011;6861;46.170;7.222;2023-05-09T04:17:34;0.82;;;0.82;;
13580;SDS011;6861;46.170;7.222;2023-05-09T04:20:04;1.80;;;0.90;;
13580;SDS011;6861;46.170;7.222;2023-05-09T04:22:33;1.40;;;0.80;;
13580;SDS011;6861;46.170;7.222;2023-05-09T04:25:01;1.10;;;0.80;;
13580;SDS011;6861;46.170;7.222;2023-05-09T04:27:30;3.60;;;0.90;;
13580;SDS011;6861;46.170;7.222;2023-05-09T04:29:58;4.32;;;1.58;;
13580;SDS011;6861;46.170;7.222;2023-05-09T04:32:26;3.08;;;1.23;;
13580;SDS011;6861;46.170;7.222;2023-05-09T04:34:54;2.95;;;1.42;;
13580;SDS011;6861;46.170;7.222;2023-05-09T04:37:24;6.70;;;1.50;;
13580;SDS011;6861;46.170;7.222;2023-05-09T04:39:52;2.47;;;1.13;;
13580;SDS011;6861;46.170;7.222;2023-05-09T04:42:20;6.25;;;1.35;;
13580;SDS011;6861;46.170;7.222;2023-05-09T04:44:48;2.42;;;1.08;;
13580;SDS011;6861;46.170;7.222;2023-05-09T04:47:17;4.03;;;1.25;;
13580;SDS011;6861;46.170;7.222;2023-05-09T04:49:45;0.75;;;0.75;;
13580;SDS011;6861;46.170;7.222;2023-05-09T04:52:13;3.42;;;1.23;;
13580;SDS011;6861;46.170;7.222;2023-05-09T04:54:42;2.38;;;1.08;;
13580;SDS011;6861;46.170;7.222;2023-05-09T04:57:11;2.83;;;1.10;;
13580;SDS011;6861;46.170;7.222;2023-05-09T04:59:44;1.10;;;0.80;;
13580;SDS011;6861;46.170;7.222;2023-05-09T05:02:12;2.15;;;1.10;;
13580;SDS011;6861;46.170;7.222;2023-05-09T05:04:40;2.92;;;1.00;;
13580;SDS011;6861;46.170;7.222;2023-05-09T05:07:08;0.95;;;0.85;;
13580;SDS011;6861;46.170;7.222;2023-05-09T05:09:36;3.65;;;1.30;;
13580;SDS011;6861;46.170;7.222;2023-05-09T05:12:06;3.17;;;0.88;;
13580;SDS011;6861;46.170;7.222;2023-05-09T05:14:35;2.58;;;0.80;;
13580;SDS011;6861;46.170;7.222;2023-05-09T05:17:03;2.80;;;0.80;;
13580;SDS011;6861;46.170;7.222;2023-05-09T05:19:31;1.67;;;0.80;;
13580;SDS011;6861;46.170;7.222;2023-05-09T05:21:59;1.40;;;0.77;;
13580;SDS011;6861;46.170;7.222;2023-05-09T05:24:28;2.47;;;0.82;;
13580;SDS011;6861;46.170;7.222;2023-05-09T05:26:56;0.93;;;0.80;;
13580;SDS011;6861;46.170;7.222;2023-05-09T05:29:25;1.40;;;0.75;;
13580;SDS011;6861;46.170;7.222;2023-05-09T05:31:53;3.13;;;0.80;;
13580;SDS011;6861;46.170;7.222;2023-05-09T05:34:22;2.65;;;1.17;;
13580;SDS011;6861;46.170;7.222;2023-05-09T05:36:50;1.10;;;0.75;;
13580;SDS011;6861;46.170;7.222;2023-05-09T05:39:18;0.90;;;0.73;;
13580;SDS011;6861;46.170;7.222;2023-05-09T05:41:46;2.03;;;1.00;;
13580;SDS011;6861;46.170;7.222;2023-05-09T05:44:14;3.58;;;0.90;;
13580;SDS011;6861;46.170;7.222;2023-05-09T05:46:44;2.63;;;1.20;;
13580;SDS011;6861;46.170;7.222;2023-05-09T05:49:12;2.63;;;0.80;;
13580;SDS011;6861;46.170;7.222;2023-05-09T05:51:40;1.75;;;0.90;;
13580;SDS011;6861;46.170;7.222;2023-05-09T05:54:08;2.25;;;0.80;;
13580;SDS011;6861;46.170;7.222;2023-05-09T05:56:36;3.28;;;0.80;;
13580;SDS011;6861;46.170;7.222;2023-05-09T05:59:04;0.90;;;0.70;;
13580;SDS011;6861;46.170;7.222;2023-05-09T06:01:32;2.17;;;0.80;;
13580;SDS011;6861;46.170;7.222;2023-05-09T06:04:02;1.25;;;0.85;;
13580;SDS011;6861;46.170;7.222;2023-05-09T06:06:30;2.58;;;0.70;;
13580;SDS011;6861;46.170;7.222;2023-05-09T06:08:58;1.05;;;0.70;;
13580;SDS011;6861;46.170;7.222;2023-05-09T06:11:26;1.00;;;0.65;;
13580;SDS011;6861;46.170;7.222;2023-05-09T06:13:54;1.25;;;0.65;;
13580;SDS011;6861;46.170;7.222;2023-05-09T06:16:23;1.50;;;0.80;;
13580;SDS011;6861;46.170;7.222;2023-05-09T06:18:51;2.42;;;1.00;;
13580;SDS011;6861;46.170;7.222;2023-05-09T06:21:22;2.67;;;0.73;;
13580;SDS011;6861;46.170;7.222;2023-05-09T06:23:51;0.93;;;0.75;;
13580;SDS011;6861;46.170;7.222;2023-05-09T06:26:35;3.25;;;0.60;;
13580;SDS011;6861;46.170;7.222;2023-05-09T06:29:03;3.42;;;0.70;;
13580;SDS011;6861;46.170;7.222;2023-05-09T06:31:33;1.23;;;0.80;;
13580;SDS011;6861;46.170;7.222;2023-05-09T06:34:04;4.45;;;0.90;;
13580;SDS011;6861;46.170;7.222;2023-05-09T06:36:34;1.85;;;0.93;;
13580;SDS011;6861;46.170;7.222;2023-05-09T06:39:02;1.60;;;0.63;;
13580;SDS011;6861;46.170;7.222;2023-05-09T06:41:30;3.30;;;0.80;;
13580;SDS011;6861;46.170;7.222;2023-05-09T06:43:58;1.77;;;0.80;;
13580;SDS011;6861;46.170;7.222;2023-05-09T06:46:27;2.00;;;0.75;;
13580;SDS011;6861;46.170;7.222;2023-05-09T06:48:56;1.75;;;0.70;;
13580;SDS011;6861;46.170;7.222;2023-05-09T06:51:27;1.63;;;0.70;;
13580;SDS011;6861;46.170;7.222;2023-05-09T06:53:56;0.60;;;0.60;;
13580;SDS011;6861;46.170;7.222;2023-05-09T06:56:24;3.42;;;0.70;;
13580;SDS011;6861;46.170;7.222;2023-05-09T06:58:53;0.80;;;0.50;;
13580;SDS011;6861;46.170;7.222;2023-05-09T07:01:21;1.42;;;0.60;;
13580;SDS011;6861;46.170;7.222;2023-05-09T07:03:49;0.52;;;0.52;;
13580;SDS011;6861;46.170;7.222;2023-05-09T07:06:17;1.05;;;0.60;;
13580;SDS011;6861;46.170;7.222;2023-05-09T07:08:46;1.45;;;0.57;;
13580;SDS011;6861;46.170;7.222;2023-05-09T07:11:15;0.70;;;0.40;;
13580;SDS011;6861;46.170;7.222;2023-05-09T07:13:43;0.70;;;0.50;;
13580;SDS011;6861;46.170;7.222;2023-05-09T07:16:11;0.50;;;0.50;;
13580;SDS011;6861;46.170;7.222;2023-05-09T07:18:40;1.98;;;0.65;;
13580;SDS011;6861;46.170;7.222;2023-05-09T07:21:08;1.10;;;0.70;;
13580;SDS011;6861;46.170;7.222;2023-05-09T07:23:36;1.88;;;0.60;;
13580;SDS011;6861;46.170;7.222;2023-05-09T07:26:04;0.70;;;0.68;;
13580;SDS011;6861;46.170;7.222;2023-05-09T07:28:34;1.40;;;0.55;;
13580;SDS011;6861;46.170;7.222;2023-05-09T07:31:02;1.40;;;0.68;;
13580;SDS011;6861;46.170;7.222;2023-05-09T07:33:31;3.35;;;0.80;;
13580;SDS011;6861;46.170;7.222;2023-05-09T07:36:00;1.98;;;0.50;;
13580;SDS011;6861;46.170;7.222;2023-05-09T07:38:28;2.28;;;0.73;;
13580;SDS011;6861;46.170;7.222;2023-05-09T07:40:56;1.20;;;0.60;;
13580;SDS011;6861;46.170;7.222;2023-05-09T07:43:24;0.98;;;0.60;;
13580;SDS011;6861;46.170;7.222;2023-05-09T07:45:54;0.50;;;0.50;;
13580;SDS011;6861;46.170;7.222;2023-05-09T07:48:22;0.77;;;0.60;;
13580;SDS011;6861;46.170;7.222;2023-05-09T07:50:50;1.83;;;0.63;;
13580;SDS011;6861;46.170;7.222;2023-05-09T07:53:18;1.48;;;0.70;;
13580;SDS011;6861;46.170;7.222;2023-05-09T07:55:46;2.60;;;0.70;;
13580;SDS011;6861;46.170;7.222;2023-05-09T07:58:15;0.75;;;0.60;;
13580;SDS011;6861;46.170;7.222;2023-05-09T08:00:43;1.25;;;0.70;;
13580;SDS011;6861;46.170;7.222;2023-05-09T08:03:13;2.15;;;0.65;;
13580;SDS011;6861;46.170;7.222;2023-05-09T08:05:41;1.73;;;0.60;;
13580;SDS011;6861;46.170;7.222;2023-05-09T08:08:09;1.50;;;0.60;;
13580;SDS011;6861;46.170;7.222;2023-05-09T08:10:37;1.65;;;0.60;;
13580;SDS011;6861;46.170;7.222;2023-05-09T08:13:05;1.73;;;0.70;;
13580;SDS011;6861;46.170;7.222;2023-05-09T08:15:33;1.38;;;0.70;;
13580;SDS011;6861;46.170;7.222;2023-05-09T08:18:02;2.15;;;0.63;;
13580;SDS011;6861;46.170;7.222;2023-05-09T08:20:31;0.70;;;0.68;;
13580;SDS011;6861;46.170;7.222;2023-05-09T08:22:59;3.13;;;0.80;;
13580;SDS011;6861;46.170;7.222;2023-05-09T08:25:28;0.80;;;0.70;;
13580;SDS011;6861;46.170;7.222;2023-05-09T08:27:56;1.58;;;0.65;;
13580;SDS011;6861;46.170;7.222;2023-05-09T08:30:24;1.30;;;0.60;;
13580;SDS011;6861;46.170;7.222;2023-05-09T08:32:54;1.77;;;0.57;;
13580;SDS011;6861;46.170;7.222;2023-05-09T08:35:22;1.38;;;0.70;;
13580;SDS011;6861;46.170;7.222;2023-05-09T08:37:52;1.67;;;0.70;;
13580;SDS011;6861;46.170;7.222;2023-05-09T08:40:20;1.27;;;0.80;;
13580;SDS011;6861;46.170;7.222;2023-05-09T08:42:48;1.52;;;0.70;;
13580;SDS011;6861;46.170;7.222;2023-05-09T08:45:18;3.92;;;0.80;;
13580;SDS011;6861;46.170;7.222;2023-05-09T08:47:52;2.85;;;0.77;;
13580;SDS011;6861;46.170;7.222;2023-05-09T08:50:20;1.90;;;0.75;;
13580;SDS011;6861;46.170;7.222;2023-05-09T08:52:50;3.58;;;0.80;;
13580;SDS011;6861;46.170;7.222;2023-05-09T08:55:19;2.05;;;0.70;;
13580;SDS011;6861;46.170;7.222;2023-05-09T08:57:48;3.28;;;0.70;;
13580;SDS011;6861;46.170;7.222;2023-05-09T09:00:16;2.63;;;0.77;;
13580;SDS011;6861;46.170;7.222;2023-05-09T09:02:47;0.60;;;0.50;;
13580;SDS011;6861;46.170;7.222;2023-05-09T09:05:16;1.95;;;0.60;;
13580;SDS011;6861;46.170;7.222;2023-05-09T09:08:05;0.70;;;0.63;;
13580;SDS011;6861;46.170;7.222;2023-05-09T09:10:35;3.00;;;0.60;;
13580;SDS011;6861;46.170;7.222;2023-05-09T09:13:08;0.50;;;0.50;;
13580;SDS011;6861;46.170;7.222;2023-05-09T09:15:39;2.33;;;0.57;;
13580;SDS011;6861;46.170;7.222;2023-05-09T09:18:10;0.70;;;0.50;;
13580;SDS011;6861;46.170;7.222;2023-05-09T09:20:44;0.75;;;0.40;;
13580;SDS011;6861;46.170;7.222;2023-05-09T09:23:16;2.05;;;0.65;;
13580;SDS011;6861;46.170;7.222;2023-05-09T09:25:47;1.77;;;0.60;;
13580;SDS011;6861;46.170;7.222;2023-05-09T09:28:16;0.80;;;0.60;;
13580;SDS011;6861;46.170;7.222;2023-05-09T09:30:44;1.35;;;0.70;;
13580;SDS011;6861;46.170;7.222;2023-05-09T09:33:20;0.80;;;0.50;;
13580;SDS011;6861;46.170;7.222;2023-05-09T09:35:48;1.60;;;0.60;;
13580;SDS011;6861;46.170;7.222;2023-05-09T09:38:17;4.70;;;0.80;;
13580;SDS011;6861;46.170;7.222;2023-05-09T09:40:53;0.82;;;0.57;;
13580;SDS011;6861;46.170;7.222;2023-05-09T09:43:28;1.38;;;0.50;;
13580;SDS011;6861;46.170;7.222;2023-05-09T09:45:59;1.05;;;0.60;;
13580;SDS011;6861;46.170;7.222;2023-05-09T09:48:29;2.20;;;0.63;;
13580;SDS011;6861;46.170;7.222;2023-05-09T09:51:02;1.23;;;0.60;;
13580;SDS011;6861;46.170;7.222;2023-05-09T09:53:37;1.13;;;0.52;;
13580;SDS011;6861;46.170;7.222;2023-05-09T09:56:07;1.25;;;0.55;;
13580;SDS011;6861;46.170;7.222;2023-05-09T09:58:36;0.68;;;0.60;;
13580;SDS011;6861;46.170;7.222;2023-05-09T10:01:04;1.40;;;0.60;;
13580;SDS011;6861;46.170;7.222;2023-05-09T10:03:34;2.90;;;0.50;;
13580;SDS011;6861;46.170;7.222;2023-05-09T10:06:03;1.15;;;0.50;;
13580;SDS011;6861;46.170;7.222;2023-05-09T10:08:32;1.55;;;0.55;;
13580;SDS011;6861;46.170;7.222;2023-05-09T10:11:00;1.25;;;0.60;;
13580;SDS011;6861;46.170;7.222;2023-05-09T10:13:30;0.80;;;0.50;;
13580;SDS011;6861;46.170;7.222;2023-05-09T10:16:03;0.65;;;0.45;;
13580;SDS011;6861;46.170;7.222;2023-05-09T10:18:32;1.52;;;0.60;;
13580;SDS011;6861;46.170;7.222;2023-05-09T10:21:01;1.80;;;0.50;;
13580;SDS011;6861;46.170;7.222;2023-05-09T10:23:31;0.82;;;0.60;;
13580;SDS011;6861;46.170;7.222;2023-05-09T10:26:04;1.00;;;0.40;;
13580;SDS011;6861;46.170;7.222;2023-05-09T10:28:40;0.68;;;0.50;;
13580;SDS011;6861;46.170;7.222;2023-05-09T10:31:13;4.00;;;0.63;;
13580;SDS011;6861;46.170;7.222;2023-05-09T10:33:45;1.40;;;0.60;;
13580;SDS011;6861;46.170;7.222;2023-05-09T10:36:15;1.75;;;0.70;;
13580;SDS011;6861;46.170;7.222;2023-05-09T10:38:46;0.57;;;0.57;;
13580;SDS011;6861;46.170;7.222;2023-05-09T10:41:14;3.20;;;0.60;;
13580;SDS011;6861;46.170;7.222;2023-05-09T10:43:45;2.58;;;0.65;;
13580;SDS011;6861;46.170;7.222;2023-05-09T10:46:14;1.55;;;0.60;;
13580;SDS011;6861;46.170;7.222;2023-05-09T10:48:42;1.10;;;0.70;;
13580;SDS011;6861;46.170;7.222;2023-05-09T10:51:11;2.35;;;1.08;;
13580;SDS011;6861;46.170;7.222;2023-05-09T10:53:40;1.05;;;0.70;;
13580;SDS011;6861;46.170;7.222;2023-05-09T10:56:20;2.53;;;0.85;;
13580;SDS011;6861;46.170;7.222;2023-05-09T10:58:51;1.25;;;0.70;;
13580;SDS011;6861;46.170;7.222;2023-05-09T11:01:29;2.47;;;0.60;;
13580;SDS011;6861;46.170;7.222;2023-05-09T11:04:01;1.58;;;0.90;;
13580;SDS011;6861;46.170;7.222;2023-05-09T11:06:39;2.78;;;0.70;;
13580;SDS011;6861;46.170;7.222;2023-05-09T11:09:21;1.08;;;0.70;;
13580;SDS011;6861;46.170;7.222;2023-05-09T11:11:52;1.10;;;0.60;;
13580;SDS011;6861;46.170;7.222;2023-05-09T11:14:30;1.42;;;0.60;;
13580;SDS011;6861;46.170;7.222;2023-05-09T11:17:00;2.35;;;0.80;;
13580;SDS011;6861;46.170;7.222;2023-05-09T11:19:36;2.15;;;0.70;;
13580;SDS011;6861;46.170;7.222;2023-05-09T11:22:23;0.98;;;0.80;;
13580;SDS011;6861;46.170;7.222;2023-05-09T11:24:58;2.85;;;0.77;;
13580;SDS011;6861;46.170;7.222;2023-05-09T11:27:35;2.20;;;0.80;;
13580;SDS011;6861;46.170;7.222;2023-05-09T11:30:08;0.80;;;0.75;;
13580;SDS011;6861;46.170;7.222;2023-05-09T11:32:42;5.03;;;0.80;;
13580;SDS011;6861;46.170;7.222;2023-05-09T11:35:12;1.23;;;0.75;;
13580;SDS011;6861;46.170;7.222;2023-05-09T11:37:46;1.38;;;0.75;;
13580;SDS011;6861;46.170;7.222;2023-05-09T11:40:15;2.85;;;0.90;;
13580;SDS011;6861;46.170;7.222;2023-05-09T11:42:45;1.83;;;0.80;;
13580;SDS011;6861;46.170;7.222;2023-05-09T11:45:16;2.28;;;0.90;;
13580;SDS011;6861;46.170;7.222;2023-05-09T11:47:45;3.42;;;0.82;;
13580;SDS011;6861;46.170;7.222;2023-05-09T11:50:14;1.88;;;1.00;;
13580;SDS011;6861;46.170;7.222;2023-05-09T11:52:43;2.25;;;0.90;;
13580;SDS011;6861;46.170;7.222;2023-05-09T11:55:13;2.75;;;1.08;;
13580;SDS011;6861;46.170;7.222;2023-05-09T11:57:43;2.20;;;0.85;;
13580;SDS011;6861;46.170;7.222;2023-05-09T12:00:14;2.70;;;0.98;;
13580;SDS011;6861;46.170;7.222;2023-05-09T12:02:44;1.67;;;0.80;;
13580;SDS011;6861;46.170;7.222;2023-05-09T12:05:14;2.33;;;1.00;;
13580;SDS011;6861;46.170;7.222;2023-05-09T12:07:44;1.75;;;1.00;;
13580;SDS011;6861;46.170;7.222;2023-05-09T12:10:13;5.10;;;1.40;;
13580;SDS011;6861;46.170;7.222;2023-05-09T12:12:42;2.85;;;0.90;;
13580;SDS011;6861;46.170;7.222;2023-05-09T12:15:12;4.68;;;1.08;;
13580;SDS011;6861;46.170;7.222;2023-05-09T12:17:42;2.13;;;0.80;;
13580;SDS011;6861;46.170;7.222;2023-05-09T12:20:14;7.10;;;1.63;;
13580;SDS011;6861;46.170;7.222;2023-05-09T12:22:43;1.38;;;1.02;;
13580;SDS011;6861;46.170;7.222;2023-05-09T12:25:11;7.22;;;1.33;;
13580;SDS011;6861;46.170;7.222;2023-05-09T12:27:40;4.32;;;1.40;;
13580;SDS011;6861;46.170;7.222;2023-05-09T12:30:08;7.80;;;1.50;;
13580;SDS011;6861;46.170;7.222;2023-05-09T12:32:41;9.93;;;1.85;;
13580;SDS011;6861;46.170;7.222;2023-05-09T12:35:09;10.85;;;2.28;;
13580;SDS011;6861;46.170;7.222;2023-05-09T12:37:39;2.95;;;1.42;;
13580;SDS011;6861;46.170;7.222;2023-05-09T12:40:20;3.17;;;1.08;;
13580;SDS011;6861;46.170;7.222;2023-05-09T12:42:49;1.88;;;1.10;;
13580;SDS011;6861;46.170;7.222;2023-05-09T12:45:19;3.55;;;1.20;;
13580;SDS011;6861;46.170;7.222;2023-05-09T12:47:50;3.35;;;1.08;;
13580;SDS011;6861;46.170;7.222;2023-05-09T12:50:18;6.70;;;1.83;;
13580;SDS011;6861;46.170;7.222;2023-05-09T12:52:50;7.18;;;1.90;;
13580;SDS011;6861;46.170;7.222;2023-05-09T12:55:28;8.13;;;1.35;;
13580;SDS011;6861;46.170;7.222;2023-05-09T12:57:58;3.15;;;1.20;;
13580;SDS011;6861;46.170;7.222;2023-05-09T13:00:27;6.32;;;1.58;;
13580;SDS011;6861;46.170;7.222;2023-05-09T13:02:56;4.78;;;1.40;;
13580;SDS011;6861;46.170;7.222;2023-05-09T13:05:24;3.70;;;1.48;;
13580;SDS011;6861;46.170;7.222;2023-05-09T13:07:55;3.47;;;1.45;;
13580;SDS011;6861;46.170;7.222;2023-05-09T13:10:24;6.10;;;1.40;;
13580;SDS011;6861;46.170;7.222;2023-05-09T13:12:54;5.57;;;1.52;;
13580;SDS011;6861;46.170;7.222;2023-05-09T13:15:22;8.27;;;1.92;;
13580;SDS011;6861;46.170;7.222;2023-05-09T13:17:52;4.32;;;1.45;;
13580;SDS011;6861;46.170;7.222;2023-05-09T13:20:21;8.00;;;1.30;;
13580;SDS011;6861;46.170;7.222;2023-05-09T13:22:49;3.08;;;1.00;;
13580;SDS011;6861;46.170;7.222;2023-05-09T13:25:18;2.50;;;1.00;;
13580;SDS011;6861;46.170;7.222;2023-05-09T13:27:47;1.95;;;1.05;;
13580;SDS011;6861;46.170;7.222;2023-05-09T13:30:15;4.82;;;1.10;;
13580;SDS011;6861;46.170;7.222;2023-05-09T13:32:44;1.98;;;1.08;;
13580;SDS011;6861;46.170;7.222;2023-05-09T13:35:13;1.42;;;0.90;;
13580;SDS011;6861;46.170;7.222;2023-05-09T13:37:42;1.70;;;1.10;;
13580;SDS011;6861;46.170;7.222;2023-05-09T13:40:10;8.48;;;1.50;;
13580;SDS011;6861;46.170;7.222;2023-05-09T13:42:40;9.98;;;1.70;;
13580;SDS011;6861;46.170;7.222;2023-05-09T13:45:09;5.80;;;1.48;;
13580;SDS011;6861;46.170;7.222;2023-05-09T13:47:38;4.03;;;1.00;;
13580;SDS011;6861;46.170;7.222;2023-05-09T13:50:06;3.50;;;0.90;;
13580;SDS011;6861;46.170;7.222;2023-05-09T13:52:34;2.47;;;1.02;;
13580;SDS011;6861;46.170;7.222;2023-05-09T13:55:03;2.35;;;0.80;;
13580;SDS011;6861;46.170;7.222;2023-05-09T13:57:31;5.13;;;0.90;;
13580;SDS011;6861;46.170;7.222;2023-05-09T14:00:01;4.65;;;1.48;;
13580;SDS011;6861;46.170;7.222;2023-05-09T14:02:30;5.43;;;1.10;;
13580;SDS011;6861;46.170;7.222;2023-05-09T14:04:58;8.82;;;1.83;;
13580;SDS011;6861;46.170;7.222;2023-05-09T14:07:28;3.70;;;1.15;;
13580;SDS011;6861;46.170;7.222;2023-05-09T14:09:56;3.17;;;0.75;;
13580;SDS011;6861;46.170;7.222;2023-05-09T14:12:37;1.25;;;0.80;;
13580;SDS011;6861;46.170;7.222;2023-05-09T14:15:11;1.27;;;0.80;;
13580;SDS011;6861;46.170;7.222;2023-05-09T14:17:39;2.65;;;1.10;;
13580;SDS011;6861;46.170;7.222;2023-05-09T14:20:09;1.60;;;0.80;;
13580;SDS011;6861;46.170;7.222;2023-05-09T14:22:38;3.03;;;0.90;;
13580;SDS011;6861;46.170;7.222;2023-05-09T14:25:06;4.68;;;1.30;;
13580;SDS011;6861;46.170;7.222;2023-05-09T14:27:35;5.57;;;1.48;;
13580;SDS011;6861;46.170;7.222;2023-05-09T14:30:03;5.68;;;1.15;;
13580;SDS011;6861;46.170;7.222;2023-05-09T14:32:33;2.13;;;1.10;;
13580;SDS011;6861;46.170;7.222;2023-05-09T14:35:01;3.05;;;1.25;;
13580;SDS011;6861;46.170;7.222;2023-05-09T14:37:30;1.88;;;0.82;;
13580;SDS011;6861;46.170;7.222;2023-05-09T14:39:58;2.80;;;0.93;;
13580;SDS011;6861;46.170;7.222;2023-05-09T14:42:30;1.40;;;0.82;;
13580;SDS011;6861;46.170;7.222;2023-05-09T14:44:59;1.42;;;1.00;;
13580;SDS011;6861;46.170;7.222;2023-05-09T14:47:27;2.47;;;1.15;;
13580;SDS011;6861;46.170;7.222;2023-05-09T14:49:56;3.83;;;1.20;;
13580;SDS011;6861;46.170;7.222;2023-05-09T14:52:25;3.72;;;1.00;;
13580;SDS011;6861;46.170;7.222;2023-05-09T14:54:54;2.55;;;1.02;;
13580;SDS011;6861;46.170;7.222;2023-05-09T14:57:22;1.58;;;1.17;;
13580;SDS011;6861;46.170;7.222;2023-05-09T14:59:50;2.22;;;1.00;;
13580;SDS011;6861;46.170;7.222;2023-05-09T15:02:18;2.83;;;0.98;;
13580;SDS011;6861;46.170;7.222;2023-05-09T15:04:46;2.35;;;0.90;;
13580;SDS011;6861;46.170;7.222;2023-05-09T15:07:16;2.10;;;0.90;;
13580;SDS011;6861;46.170;7.222;2023-05-09T15:09:44;2.97;;;1.00;;
13580;SDS011;6861;46.170;7.222;2023-05-09T15:12:12;2.20;;;1.13;;
13580;SDS011;6861;46.170;7.222;2023-05-09T15:14:41;1.42;;;0.93;;